sensor_id;sensor_type;location;lat;lon;timestamp;temperature;humidity
59282;DHT22;45054;52.062;10.010;2022-10-15T00:01:14;13.80;99.90
59282;DHT22;45054;52.062;10.010;2022-10-15T00:03:40;13.80;99.90
59282;DHT22;45054;52.062;10.010;2022-10-15T00:06:06;13.80;99.90
59282;DHT22;45054;52.062;10.010;2022-10-15T00:08:32;13.90;99.90
59282;DHT22;45054;52.062;10.010;2022-10-15T00:11:01;13.90;99.90
59282;DHT22;45054;52.062;10.010;2022-10-15T00:13:26;13.90;99.90
59282;DHT22;45054;52.062;10.010;2022-10-15T00:15:53;13.90;99.90
59282;DHT22;45054;52.062;10.010;2022-10-15T00:18:18;13.90;99.90
59282;DHT22;45054;52.062;10.010;2022-10-15T00:20:44;13.90;99.90
59282;DHT22;45054;52.062;10.010;2022-10-15T00:23:09;13.80;99.90
59282;DHT22;45054;52.062;10.010;2022-10-15T00:25:35;13.80;99.90
59282;DHT22;45054;52.062;10.010;2022-10-15T00:28:00;13.80;99.90
59282;DHT22;45054;52.062;10.010;2022-10-15T00:30:26;13.80;99.90
59282;DHT22;45054;52.062;10.010;2022-10-15T00:32:53;13.80;99.90
59282;DHT22;45054;52.062;10.010;2022-10-15T00:35:18;13.80;99.90
59282;DHT22;45054;52.062;10.010;2022-10-15T00:37:44;13.80;99.90
59282;DHT22;45054;52.062;10.010;2022-10-15T00:40:10;13.80;99.90
59282;DHT22;45054;52.062;10.010;2022-10-15T00:42:36;13.80;99.90
59282;DHT22;45054;52.062;10.010;2022-10-15T00:45:01;13.80;99.90
59282;DHT22;45054;52.062;10.010;2022-10-15T00:47:28;13.80;99.90
59282;DHT22;45054;52.062;10.010;2022-10-15T00:49:57;13.80;99.90
59282;DHT22;45054;52.062;10.010;2022-10-15T00:52:24;13.80;99.90
59282;DHT22;45054;52.062;10.010;2022-10-15T00:54:51;13.80;99.90
59282;DHT22;45054;52.062;10.010;2022-10-15T00:57:17;13.70;99.90
59282;DHT22;45054;52.062;10.010;2022-10-15T00:59:45;13.70;99.90
59282;DHT22;45054;52.062;10.010;2022-10-15T01:02:11;13.70;99.90
59282;DHT22;45054;52.062;10.010;2022-10-15T01:04:37;13.70;99.90
59282;DHT22;45054;52.062;10.010;2022-10-15T01:07:04;13.80;99.90
59282;DHT22;45054;52.062;10.010;2022-10-15T01:09:30;13.70;99.90
59282;DHT22;45054;52.062;10.010;2022-10-15T01:11:56;13.70;99.90
59282;DHT22;45054;52.062;10.010;2022-10-15T01:14:25;13.70;99.90
59282;DHT22;45054;52.062;10.010;2022-10-15T01:16:54;13.70;99.90
59282;DHT22;45054;52.062;10.010;2022-10-15T01:19:26;13.70;99.90
59282;DHT22;45054;52.062;10.010;2022-10-15T01:21:53;13.70;99.90
59282;DHT22;45054;52.062;10.010;2022-10-15T01:32:55;13.60;99.90
59282;DHT22;45054;52.062;10.010;2022-10-15T01:35:25;13.60;99.90
59282;DHT22;45054;52.062;10.010;2022-10-15T01:37:54;13.60;99.90
59282;DHT22;45054;52.062;10.010;2022-10-15T01:40:23;13.60;99.90
59282;DHT22;45054;52.062;10.010;2022-10-15T01:42:50;13.50;99.90
59282;DHT22;45054;52.062;10.010;2022-10-15T01:45:19;13.50;99.90
59282;DHT22;45054;52.062;10.010;2022-10-15T01:47:47;13.50;99.90
59282;DHT22;45054;52.062;10.010;2022-10-15T01:50:14;13.50;99.90
59282;DHT22;45054;52.062;10.010;2022-10-15T01:52:41;13.50;99.90
59282;DHT22;45054;52.062;10.010;2022-10-15T01:55:09;13.50;99.90
59282;DHT22;45054;52.062;10.010;2022-10-15T01:57:35;13.50;99.90
59282;DHT22;45054;52.062;10.010;2022-10-15T02:00:02;13.50;99.90
59282;DHT22;45054;52.062;10.010;2022-10-15T02:02:28;13.50;99.90
59282;DHT22;45054;52.062;10.010;2022-10-15T02:04:53;13.50;99.90
59282;DHT22;45054;52.062;10.010;2022-10-15T02:07:22;13.50;99.90
59282;DHT22;45054;52.062;10.010;2022-10-15T02:09:53;13.60;99.90
59282;DHT22;45054;52.062;10.010;2022-10-15T02:12:25;13.50;99.90
59282;DHT22;45054;52.062;10.010;2022-10-15T02:14:53;13.40;99.90
59282;DHT22;45054;52.062;10.010;2022-10-15T02:17:22;13.40;99.90
59282;DHT22;45054;52.062;10.010;2022-10-15T02:19:50;13.40;99.90
59282;DHT22;45054;52.062;10.010;2022-10-15T02:22:18;13.40;99.90
59282;DHT22;45054;52.062;10.010;2022-10-15T02:24:49;13.40;99.90
59282;DHT22;45054;52.062;10.010;2022-10-15T02:27:15;13.40;99.90
59282;DHT22;45054;52.062;10.010;2022-10-15T02:29:42;13.40;99.90
59282;DHT22;45054;52.062;10.010;2022-10-15T02:32:09;13.40;99.90
59282;DHT22;45054;52.062;10.010;2022-10-15T02:34:35;13.40;99.90
59282;DHT22;45054;52.062;10.010;2022-10-15T02:37:01;13.50;99.90
59282;DHT22;45054;52.062;10.010;2022-10-15T02:39:28;13.50;99.90
59282;DHT22;45054;52.062;10.010;2022-10-15T02:41:55;13.40;99.90
59282;DHT22;45054;52.062;10.010;2022-10-15T02:44:21;13.40;99.90
59282;DHT22;45054;52.062;10.010;2022-10-15T02:46:48;13.40;99.90
59282;DHT22;45054;52.062;10.010;2022-10-15T02:49:14;13.40;99.90
59282;DHT22;45054;52.062;10.010;2022-10-15T02:51:40;13.40;99.90
59282;DHT22;45054;52.062;10.010;2022-10-15T02:54:06;13.30;99.90
59282;DHT22;45054;52.062;10.010;2022-10-15T02:56:31;13.40;99.90
59282;DHT22;45054;52.062;10.010;2022-10-15T02:58:58;13.30;99.90
59282;DHT22;45054;52.062;10.010;2022-10-15T03:01:24;13.40;99.90
59282;DHT22;45054;52.062;10.010;2022-10-15T03:03:49;13.40;99.90
59282;DHT22;45054;52.062;10.010;2022-10-15T03:06:15;13.40;99.90
59282;DHT22;45054;52.062;10.010;2022-10-15T03:08:41;13.30;99.90
59282;DHT22;45054;52.062;10.010;2022-10-15T03:11:06;13.30;99.90
59282;DHT22;45054;52.062;10.010;2022-10-15T03:13:34;13.40;99.90
59282;DHT22;45054;52.062;10.010;2022-10-15T03:16:02;13.30;99.90
59282;DHT22;45054;52.062;10.010;2022-10-15T03:18:27;13.30;99.90
59282;DHT22;45054;52.062;10.010;2022-10-15T03:20:53;13.30;99.90
59282;DHT22;45054;52.062;10.010;2022-10-15T03:23:19;13.30;99.90
59282;DHT22;45054;52.062;10.010;2022-10-15T03:25:44;13.30;99.90
59282;DHT22;45054;52.062;10.010;2022-10-15T03:28:12;13.30;99.90
59282;DHT22;45054;52.062;10.010;2022-10-15T03:30:38;13.40;99.90
59282;DHT22;45054;52.062;10.010;2022-10-15T03:33:05;13.30;99.90
59282;DHT22;45054;52.062;10.010;2022-10-15T03:35:30;13.40;99.90
59282;DHT22;45054;52.062;10.010;2022-10-15T03:37:56;13.40;99.90
59282;DHT22;45054;52.062;10.010;2022-10-15T03:40:21;13.40;99.90
59282;DHT22;45054;52.062;10.010;2022-10-15T03:42:48;13.40;99.90
59282;DHT22;45054;52.062;10.010;2022-10-15T03:45:14;13.40;99.90
59282;DHT22;45054;52.062;10.010;2022-10-15T03:47:40;13.30;99.90
59282;DHT22;45054;52.062;10.010;2022-10-15T03:50:07;13.30;99.90
59282;DHT22;45054;52.062;10.010;2022-10-15T03:52:33;13.30;99.90
59282;DHT22;45054;52.062;10.010;2022-10-15T03:54:58;13.30;99.90
59282;DHT22;45054;52.062;10.010;2022-10-15T03:57:24;13.30;99.90
59282;DHT22;45054;52.062;10.010;2022-10-15T03:59:49;13.30;99.90
59282;DHT22;45054;52.062;10.010;2022-10-15T04:02:15;13.30;99.90
59282;DHT22;45054;52.062;10.010;2022-10-15T04:04:40;13.30;99.90
59282;DHT22;45054;52.062;10.010;2022-10-15T04:07:07;13.30;99.90
59282;DHT22;45054;52.062;10.010;2022-10-15T04:09:32;13.30;99.90
59282;DHT22;45054;52.062;10.010;2022-10-15T04:11:58;13.30;99.90
59282;DHT22;45054;52.062;10.010;2022-10-15T04:14:23;13.30;99.90
59282;DHT22;45054;52.062;10.010;2022-10-15T04:16:49;13.30;99.90
59282;DHT22;45054;52.062;10.010;2022-10-15T04:19:14;13.30;99.90
59282;DHT22;45054;52.062;10.010;2022-10-15T04:21:40;13.30;99.90
59282;DHT22;45054;52.062;10.010;2022-10-15T04:24:07;13.40;99.90
59282;DHT22;45054;52.062;10.010;2022-10-15T04:26:33;13.30;99.90
59282;DHT22;45054;52.062;10.010;2022-10-15T04:28:58;13.30;99.90
59282;DHT22;45054;52.062;10.010;2022-10-15T04:31:24;13.30;99.90
59282;DHT22;45054;52.062;10.010;2022-10-15T04:33:49;13.30;99.90
59282;DHT22;45054;52.062;10.010;2022-10-15T04:36:15;13.40;99.90
59282;DHT22;45054;52.062;10.010;2022-10-15T04:38:40;13.40;99.90
59282;DHT22;45054;52.062;10.010;2022-10-15T04:41:08;13.40;99.90
59282;DHT22;45054;52.062;10.010;2022-10-15T04:43:34;13.40;99.90
59282;DHT22;45054;52.062;10.010;2022-10-15T04:46:00;13.40;99.90
59282;DHT22;45054;52.062;10.010;2022-10-15T04:48:29;13.40;99.90
59282;DHT22;45054;52.062;10.010;2022-10-15T04:50:55;13.40;99.90
59282;DHT22;45054;52.062;10.010;2022-10-15T04:53:26;13.40;99.90
59282;DHT22;45054;52.062;10.010;2022-10-15T04:55:52;13.40;99.90
59282;DHT22;45054;52.062;10.010;2022-10-15T04:58:18;13.40;99.90
59282;DHT22;45054;52.062;10.010;2022-10-15T05:00:44;13.40;99.90
59282;DHT22;45054;52.062;10.010;2022-10-15T05:03:09;13.40;99.90
59282;DHT22;45054;52.062;10.010;2022-10-15T05:05:35;13.30;99.90
59282;DHT22;45054;52.062;10.010;2022-10-15T05:08:01;13.40;99.90
59282;DHT22;45054;52.062;10.010;2022-10-15T05:10:26;13.40;99.90
59282;DHT22;45054;52.062;10.010;2022-10-15T05:12:52;13.40;99.90
59282;DHT22;45054;52.062;10.010;2022-10-15T05:15:19;13.40;99.90
59282;DHT22;45054;52.062;10.010;2022-10-15T05:17:44;13.50;99.90
59282;DHT22;45054;52.062;10.010;2022-10-15T05:20:10;13.40;99.90
59282;DHT22;45054;52.062;10.010;2022-10-15T05:22:35;13.40;99.90
59282;DHT22;45054;52.062;10.010;2022-10-15T05:25:01;13.40;99.90
59282;DHT22;45054;52.062;10.010;2022-10-15T05:27:26;13.30;99.90
59282;DHT22;45054;52.062;10.010;2022-10-15T05:29:52;13.30;99.90
59282;DHT22;45054;52.062;10.010;2022-10-15T05:32:18;13.30;99.90
59282;DHT22;45054;52.062;10.010;2022-10-15T05:34:44;13.20;99.90
59282;DHT22;45054;52.062;10.010;2022-10-15T05:37:09;13.20;99.90
59282;DHT22;45054;52.062;10.010;2022-10-15T05:39:35;13.20;99.90
59282;DHT22;45054;52.062;10.010;2022-10-15T05:42:00;13.20;99.90
59282;DHT22;45054;52.062;10.010;2022-10-15T05:44:26;13.20;99.90
59282;DHT22;45054;52.062;10.010;2022-10-15T05:46:51;13.30;99.90
59282;DHT22;45054;52.062;10.010;2022-10-15T05:49:18;13.20;99.90
59282;DHT22;45054;52.062;10.010;2022-10-15T05:51:43;13.20;99.90
59282;DHT22;45054;52.062;10.010;2022-10-15T05:54:09;13.20;99.90
59282;DHT22;45054;52.062;10.010;2022-10-15T05:56:34;13.20;99.90
59282;DHT22;45054;52.062;10.010;2022-10-15T05:59:00;13.20;99.90
59282;DHT22;45054;52.062;10.010;2022-10-15T06:01:25;13.20;99.90
59282;DHT22;45054;52.062;10.010;2022-10-15T06:03:51;13.20;99.90
59282;DHT22;45054;52.062;10.010;2022-10-15T06:06:18;13.10;99.90
59282;DHT22;45054;52.062;10.010;2022-10-15T06:08:44;13.10;99.90
59282;DHT22;45054;52.062;10.010;2022-10-15T06:11:10;13.10;99.90
59282;DHT22;45054;52.062;10.010;2022-10-15T06:13:36;13.10;99.90
59282;DHT22;45054;52.062;10.010;2022-10-15T06:16:02;13.20;99.90
59282;DHT22;45054;52.062;10.010;2022-10-15T06:18:28;13.20;99.90
59282;DHT22;45054;52.062;10.010;2022-10-15T06:20:53;13.20;99.90
59282;DHT22;45054;52.062;10.010;2022-10-15T06:23:20;13.20;99.90
59282;DHT22;45054;52.062;10.010;2022-10-15T06:25:45;13.20;99.90
59282;DHT22;45054;52.062;10.010;2022-10-15T06:28:11;13.20;99.90
59282;DHT22;45054;52.062;10.010;2022-10-15T06:30:36;13.20;99.90
59282;DHT22;45054;52.062;10.010;2022-10-15T06:33:02;13.20;99.90
59282;DHT22;45054;52.062;10.010;2022-10-15T06:35:27;13.30;99.90
59282;DHT22;45054;52.062;10.010;2022-10-15T06:37:53;13.30;99.90
59282;DHT22;45054;52.062;10.010;2022-10-15T06:40:19;13.30;99.90
59282;DHT22;45054;52.062;10.010;2022-10-15T06:42:45;13.30;99.90
59282;DHT22;45054;52.062;10.010;2022-10-15T06:45:10;13.30;99.90
59282;DHT22;45054;52.062;10.010;2022-10-15T06:47:36;13.40;99.90
59282;DHT22;45054;52.062;10.010;2022-10-15T06:50:02;13.40;99.90
59282;DHT22;45054;52.062;10.010;2022-10-15T06:52:28;13.40;99.90
59282;DHT22;45054;52.062;10.010;2022-10-15T06:54:53;13.50;99.90
59282;DHT22;45054;52.062;10.010;2022-10-15T06:57:20;13.50;99.90
59282;DHT22;45054;52.062;10.010;2022-10-15T06:59:46;13.50;99.90
59282;DHT22;45054;52.062;10.010;2022-10-15T07:02:11;13.60;99.90
59282;DHT22;45054;52.062;10.010;2022-10-15T07:04:37;13.60;99.90
59282;DHT22;45054;52.062;10.010;2022-10-15T07:07:02;13.60;99.90
59282;DHT22;45054;52.062;10.010;2022-10-15T07:09:28;13.70;99.90
59282;DHT22;45054;52.062;10.010;2022-10-15T07:11:53;13.70;99.90
59282;DHT22;45054;52.062;10.010;2022-10-15T07:14:20;13.70;99.90
59282;DHT22;45054;52.062;10.010;2022-10-15T07:16:46;13.70;99.90
59282;DHT22;45054;52.062;10.010;2022-10-15T07:19:11;13.80;99.90
59282;DHT22;45054;52.062;10.010;2022-10-15T07:21:37;13.70;99.90
59282;DHT22;45054;52.062;10.010;2022-10-15T07:24:02;13.70;99.90
59282;DHT22;45054;52.062;10.010;2022-10-15T07:26:28;13.70;99.90
59282;DHT22;45054;52.062;10.010;2022-10-15T07:28:53;13.70;99.90
59282;DHT22;45054;52.062;10.010;2022-10-15T07:31:20;13.70;99.90
59282;DHT22;45054;52.062;10.010;2022-10-15T07:33:46;13.70;99.90
59282;DHT22;45054;52.062;10.010;2022-10-15T07:36:11;13.80;99.90
59282;DHT22;45054;52.062;10.010;2022-10-15T07:38:37;13.80;99.90
59282;DHT22;45054;52.062;10.010;2022-10-15T07:41:03;13.90;99.90
59282;DHT22;45054;52.062;10.010;2022-10-15T07:43:28;13.90;99.90
59282;DHT22;45054;52.062;10.010;2022-10-15T07:45:54;14.00;99.90
59282;DHT22;45054;52.062;10.010;2022-10-15T07:48:21;14.00;99.90
59282;DHT22;45054;52.062;10.010;2022-10-15T07:50:46;14.10;99.90
59282;DHT22;45054;52.062;10.010;2022-10-15T07:53:12;14.10;99.90
59282;DHT22;45054;52.062;10.010;2022-10-15T07:55:37;14.20;99.90
59282;DHT22;45054;52.062;10.010;2022-10-15T07:58:03;14.20;99.90
59282;DHT22;45054;52.062;10.010;2022-10-15T08:00:29;14.20;99.90
59282;DHT22;45054;52.062;10.010;2022-10-15T08:02:54;14.20;99.90
59282;DHT22;45054;52.062;10.010;2022-10-15T08:05:21;14.20;99.90
59282;DHT22;45054;52.062;10.010;2022-10-15T08:07:46;14.20;99.90
59282;DHT22;45054;52.062;10.010;2022-10-15T08:10:12;14.20;99.90
59282;DHT22;45054;52.062;10.010;2022-10-15T08:12:37;14.20;99.90
59282;DHT22;45054;52.062;10.010;2022-10-15T08:15:03;14.20;99.90
59282;DHT22;45054;52.062;10.010;2022-10-15T08:17:28;14.20;99.90
59282;DHT22;45054;52.062;10.010;2022-10-15T08:19:54;14.20;99.90
59282;DHT22;45054;52.062;10.010;2022-10-15T08:22:21;14.30;99.90
59282;DHT22;45054;52.062;10.010;2022-10-15T08:24:46;14.40;99.90
59282;DHT22;45054;52.062;10.010;2022-10-15T08:27:12;14.40;99.90
59282;DHT22;45054;52.062;10.010;2022-10-15T08:29:37;14.50;99.90
59282;DHT22;45054;52.062;10.010;2022-10-15T08:32:03;14.50;99.90
59282;DHT22;45054;52.062;10.010;2022-10-15T08:34:28;14.50;99.90
59282;DHT22;45054;52.062;10.010;2022-10-15T08:36:54;14.60;99.90
59282;DHT22;45054;52.062;10.010;2022-10-15T08:39:21;14.60;99.90
59282;DHT22;45054;52.062;10.010;2022-10-15T08:41:46;14.60;99.90
59282;DHT22;45054;52.062;10.010;2022-10-15T08:44:14;14.60;99.90
59282;DHT22;45054;52.062;10.010;2022-10-15T08:46:45;14.60;99.90
59282;DHT22;45054;52.062;10.010;2022-10-15T08:49:13;14.60;99.90
59282;DHT22;45054;52.062;10.010;2022-10-15T08:51:41;14.70;99.90
59282;DHT22;45054;52.062;10.010;2022-10-15T08:54:12;14.60;99.90
59282;DHT22;45054;52.062;10.010;2022-10-15T08:56:42;14.60;99.90
59282;DHT22;45054;52.062;10.010;2022-10-15T08:59:11;14.70;99.90
59282;DHT22;45054;52.062;10.010;2022-10-15T09:01:41;14.80;99.90
59282;DHT22;45054;52.062;10.010;2022-10-15T09:04:12;14.80;99.90
59282;DHT22;45054;52.062;10.010;2022-10-15T09:06:40;14.90;99.90
59282;DHT22;45054;52.062;10.010;2022-10-15T09:09:07;14.90;99.90
59282;DHT22;45054;52.062;10.010;2022-10-15T09:11:38;15.00;99.90
59282;DHT22;45054;52.062;10.010;2022-10-15T09:14:08;15.00;99.90
59282;DHT22;45054;52.062;10.010;2022-10-15T09:16:36;15.10;99.90
59282;DHT22;45054;52.062;10.010;2022-10-15T09:19:04;15.10;99.90
59282;DHT22;45054;52.062;10.010;2022-10-15T09:21:30;15.10;99.90
59282;DHT22;45054;52.062;10.010;2022-10-15T09:23:56;15.10;99.90
59282;DHT22;45054;52.062;10.010;2022-10-15T09:26:24;15.10;99.90
59282;DHT22;45054;52.062;10.010;2022-10-15T09:28:53;15.10;99.90
59282;DHT22;45054;52.062;10.010;2022-10-15T09:31:24;15.20;99.90
59282;DHT22;45054;52.062;10.010;2022-10-15T09:33:53;15.20;99.90
59282;DHT22;45054;52.062;10.010;2022-10-15T09:36:26;15.20;99.90
59282;DHT22;45054;52.062;10.010;2022-10-15T09:38:57;15.20;99.90
59282;DHT22;45054;52.062;10.010;2022-10-15T09:41:28;15.20;99.90
59282;DHT22;45054;52.062;10.010;2022-10-15T09:43:56;15.20;99.90
59282;DHT22;45054;52.062;10.010;2022-10-15T09:46:30;15.20;99.90
59282;DHT22;45054;52.062;10.010;2022-10-15T09:49:05;15.10;99.90
59282;DHT22;45054;52.062;10.010;2022-10-15T09:51:32;15.10;99.90
59282;DHT22;45054;52.062;10.010;2022-10-15T09:54:00;15.10;99.90
59282;DHT22;45054;52.062;10.010;2022-10-15T09:56:28;15.20;99.90
59282;DHT22;45054;52.062;10.010;2022-10-15T09:58:56;15.20;99.90
59282;DHT22;45054;52.062;10.010;2022-10-15T10:01:23;15.20;99.90
59282;DHT22;45054;52.062;10.010;2022-10-15T10:03:52;15.20;99.90
59282;DHT22;45054;52.062;10.010;2022-10-15T10:06:18;15.20;99.90
59282;DHT22;45054;52.062;10.010;2022-10-15T10:08:46;15.20;99.90
59282;DHT22;45054;52.062;10.010;2022-10-15T10:11:12;15.20;99.90
59282;DHT22;45054;52.062;10.010;2022-10-15T10:13:39;15.30;99.90
59282;DHT22;45054;52.062;10.010;2022-10-15T10:16:05;15.30;99.90
59282;DHT22;45054;52.062;10.010;2022-10-15T10:18:31;15.40;99.90
59282;DHT22;45054;52.062;10.010;2022-10-15T10:20:59;15.40;99.90
59282;DHT22;45054;52.062;10.010;2022-10-15T10:23:27;15.50;99.90
59282;DHT22;45054;52.062;10.010;2022-10-15T10:25:54;15.50;99.90
59282;DHT22;45054;52.062;10.010;2022-10-15T10:28:22;15.60;99.90
59282;DHT22;45054;52.062;10.010;2022-10-15T10:30:51;15.70;99.90
59282;DHT22;45054;52.062;10.010;2022-10-15T10:33:19;16.00;99.90
59282;DHT22;45054;52.062;10.010;2022-10-15T10:35:46;16.10;99.90
59282;DHT22;45054;52.062;10.010;2022-10-15T10:38:19;16.30;99.90
59282;DHT22;45054;52.062;10.010;2022-10-15T10:40:48;16.40;99.90
59282;DHT22;45054;52.062;10.010;2022-10-15T10:43:17;16.60;99.90
59282;DHT22;45054;52.062;10.010;2022-10-15T10:45:50;16.60;99.90
59282;DHT22;45054;52.062;10.010;2022-10-15T10:48:17;16.60;99.90
59282;DHT22;45054;52.062;10.010;2022-10-15T10:50:43;16.70;99.90
59282;DHT22;45054;52.062;10.010;2022-10-15T10:53:15;16.80;99.90
59282;DHT22;45054;52.062;10.010;2022-10-15T10:55:45;16.90;99.90
59282;DHT22;45054;52.062;10.010;2022-10-15T10:58:14;16.90;99.90
59282;DHT22;45054;52.062;10.010;2022-10-15T11:00:42;17.00;99.90
59282;DHT22;45054;52.062;10.010;2022-10-15T11:03:11;16.90;99.90
59282;DHT22;45054;52.062;10.010;2022-10-15T11:05:44;17.00;99.90
59282;DHT22;45054;52.062;10.010;2022-10-15T11:08:12;17.00;99.90
59282;DHT22;45054;52.062;10.010;2022-10-15T11:10:43;16.90;99.90
59282;DHT22;45054;52.062;10.010;2022-10-15T11:13:18;16.80;99.90
59282;DHT22;45054;52.062;10.010;2022-10-15T11:15:48;16.80;99.90
59282;DHT22;45054;52.062;10.010;2022-10-15T11:18:25;16.90;99.90
59282;DHT22;45054;52.062;10.010;2022-10-15T11:20:53;17.00;99.90
59282;DHT22;45054;52.062;10.010;2022-10-15T11:23:23;17.00;99.90
59282;DHT22;45054;52.062;10.010;2022-10-15T11:25:55;17.00;99.90
59282;DHT22;45054;52.062;10.010;2022-10-15T11:28:28;16.90;99.90
59282;DHT22;45054;52.062;10.010;2022-10-15T11:31:01;16.70;99.90
59282;DHT22;45054;52.062;10.010;2022-10-15T11:33:32;16.70;99.90
59282;DHT22;45054;52.062;10.010;2022-10-15T11:36:07;16.70;99.90
59282;DHT22;45054;52.062;10.010;2022-10-15T11:38:37;16.60;99.90
59282;DHT22;45054;52.062;10.010;2022-10-15T11:41:08;16.70;99.90
59282;DHT22;45054;52.062;10.010;2022-10-15T11:43:41;16.70;99.90
59282;DHT22;45054;52.062;10.010;2022-10-15T11:46:08;16.70;99.90
59282;DHT22;45054;52.062;10.010;2022-10-15T11:48:39;16.70;99.90
59282;DHT22;45054;52.062;10.010;2022-10-15T11:51:11;16.80;99.90
59282;DHT22;45054;52.062;10.010;2022-10-15T11:53:46;17.10;99.90
59282;DHT22;45054;52.062;10.010;2022-10-15T11:56:15;17.20;99.90
59282;DHT22;45054;52.062;10.010;2022-10-15T11:58:44;17.40;99.90
59282;DHT22;45054;52.062;10.010;2022-10-15T12:01:13;17.40;99.90
59282;DHT22;45054;52.062;10.010;2022-10-15T12:03:42;17.30;99.90
59282;DHT22;45054;52.062;10.010;2022-10-15T12:06:10;17.20;99.90
59282;DHT22;45054;52.062;10.010;2022-10-15T12:08:39;17.10;99.90
59282;DHT22;45054;52.062;10.010;2022-10-15T12:11:08;16.80;99.90
59282;DHT22;45054;52.062;10.010;2022-10-15T12:13:37;16.80;99.90
59282;DHT22;45054;52.062;10.010;2022-10-15T12:16:10;17.00;99.90
59282;DHT22;45054;52.062;10.010;2022-10-15T12:18:37;17.20;99.90
59282;DHT22;45054;52.062;10.010;2022-10-15T12:23:44;17.40;99.90
59282;DHT22;45054;52.062;10.010;2022-10-15T12:26:25;17.50;99.90
59282;DHT22;45054;52.062;10.010;2022-10-15T12:28:51;17.60;99.90
59282;DHT22;45054;52.062;10.010;2022-10-15T12:31:18;17.60;99.90
59282;DHT22;45054;52.062;10.010;2022-10-15T12:33:44;17.60;99.90
59282;DHT22;45054;52.062;10.010;2022-10-15T12:36:20;17.70;99.90
59282;DHT22;45054;52.062;10.010;2022-10-15T12:38:50;17.80;99.90
59282;DHT22;45054;52.062;10.010;2022-10-15T12:41:19;17.70;99.90
59282;DHT22;45054;52.062;10.010;2022-10-15T12:43:46;17.60;99.90
59282;DHT22;45054;52.062;10.010;2022-10-15T12:46:12;17.60;99.90
59282;DHT22;45054;52.062;10.010;2022-10-15T12:48:41;17.80;99.90
59282;DHT22;45054;52.062;10.010;2022-10-15T12:56:43;18.00;99.90
59282;DHT22;45054;52.062;10.010;2022-10-15T12:59:27;18.20;99.90
59282;DHT22;45054;52.062;10.010;2022-10-15T13:01:53;18.30;99.90
59282;DHT22;45054;52.062;10.010;2022-10-15T13:04:20;18.50;99.90
59282;DHT22;45054;52.062;10.010;2022-10-15T13:06:46;18.50;99.90
59282;DHT22;45054;52.062;10.010;2022-10-15T13:09:18;18.40;99.90
59282;DHT22;45054;52.062;10.010;2022-10-15T13:11:45;18.20;99.90
59282;DHT22;45054;52.062;10.010;2022-10-15T13:14:15;18.10;99.90
59282;DHT22;45054;52.062;10.010;2022-10-15T13:16:41;18.10;99.90
59282;DHT22;45054;52.062;10.010;2022-10-15T13:19:15;18.20;99.90
59282;DHT22;45054;52.062;10.010;2022-10-15T13:21:49;18.20;99.90
59282;DHT22;45054;52.062;10.010;2022-10-15T13:24:15;18.30;99.90
59282;DHT22;45054;52.062;10.010;2022-10-15T13:26:41;18.50;99.90
59282;DHT22;45054;52.062;10.010;2022-10-15T13:29:12;18.70;99.90
59282;DHT22;45054;52.062;10.010;2022-10-15T13:31:39;18.50;99.90
59282;DHT22;45054;52.062;10.010;2022-10-15T13:34:05;18.40;99.90
59282;DHT22;45054;52.062;10.010;2022-10-15T13:36:33;18.40;99.90
59282;DHT22;45054;52.062;10.010;2022-10-15T13:39:02;18.40;99.90
59282;DHT22;45054;52.062;10.010;2022-10-15T13:41:28;18.40;99.90
59282;DHT22;45054;52.062;10.010;2022-10-15T13:43:54;18.30;99.90
59282;DHT22;45054;52.062;10.010;2022-10-15T13:46:22;18.30;99.90
59282;DHT22;45054;52.062;10.010;2022-10-15T13:48:47;18.10;99.90
59282;DHT22;45054;52.062;10.010;2022-10-15T13:51:13;18.10;99.90
59282;DHT22;45054;52.062;10.010;2022-10-15T13:53:39;18.20;99.90
59282;DHT22;45054;52.062;10.010;2022-10-15T13:56:15;18.50;99.90
59282;DHT22;45054;52.062;10.010;2022-10-15T13:58:41;18.60;99.90
59282;DHT22;45054;52.062;10.010;2022-10-15T14:01:08;18.50;99.90
59282;DHT22;45054;52.062;10.010;2022-10-15T14:03:34;18.40;99.90
59282;DHT22;45054;52.062;10.010;2022-10-15T14:06:07;18.30;99.90
59282;DHT22;45054;52.062;10.010;2022-10-15T14:08:33;18.30;99.90
59282;DHT22;45054;52.062;10.010;2022-10-15T14:10:59;18.20;99.90
59282;DHT22;45054;52.062;10.010;2022-10-15T14:13:27;18.20;99.90
59282;DHT22;45054;52.062;10.010;2022-10-15T14:15:55;18.10;99.90
59282;DHT22;45054;52.062;10.010;2022-10-15T14:18:26;18.10;99.90
59282;DHT22;45054;52.062;10.010;2022-10-15T14:20:52;18.20;99.90
59282;DHT22;45054;52.062;10.010;2022-10-15T14:23:19;18.20;99.90
59282;DHT22;45054;52.062;10.010;2022-10-15T14:25:50;18.00;99.90
59282;DHT22;45054;52.062;10.010;2022-10-15T14:28:16;17.90;99.90
59282;DHT22;45054;52.062;10.010;2022-10-15T14:30:44;17.80;99.90
59282;DHT22;45054;52.062;10.010;2022-10-15T14:36:01;17.70;99.90
59282;DHT22;45054;52.062;10.010;2022-10-15T14:38:27;17.70;99.90
59282;DHT22;45054;52.062;10.010;2022-10-15T14:40:56;17.60;99.90
59282;DHT22;45054;52.062;10.010;2022-10-15T14:43:27;17.60;99.90
59282;DHT22;45054;52.062;10.010;2022-10-15T14:45:55;17.50;99.90
59282;DHT22;45054;52.062;10.010;2022-10-15T14:48:22;17.50;99.90
59282;DHT22;45054;52.062;10.010;2022-10-15T14:50:48;17.40;99.90
59282;DHT22;45054;52.062;10.010;2022-10-15T14:53:15;17.40;99.90
59282;DHT22;45054;52.062;10.010;2022-10-15T14:55:42;17.40;99.90
59282;DHT22;45054;52.062;10.010;2022-10-15T14:58:09;17.50;99.90
59282;DHT22;45054;52.062;10.010;2022-10-15T15:00:37;17.50;99.90
59282;DHT22;45054;52.062;10.010;2022-10-15T15:03:06;17.50;99.90
59282;DHT22;45054;52.062;10.010;2022-10-15T15:05:42;17.40;99.90
59282;DHT22;45054;52.062;10.010;2022-10-15T15:08:08;17.40;99.90
59282;DHT22;45054;52.062;10.010;2022-10-15T15:10:33;17.40;99.90
59282;DHT22;45054;52.062;10.010;2022-10-15T15:12:59;17.50;99.90
59282;DHT22;45054;52.062;10.010;2022-10-15T15:15:24;17.50;99.90
59282;DHT22;45054;52.062;10.010;2022-10-15T15:17:50;17.70;99.90
59282;DHT22;45054;52.062;10.010;2022-10-15T15:20:17;17.70;99.90
59282;DHT22;45054;52.062;10.010;2022-10-15T15:22:46;17.70;99.90
59282;DHT22;45054;52.062;10.010;2022-10-15T15:25:13;17.60;99.90
59282;DHT22;45054;52.062;10.010;2022-10-15T15:27:38;17.50;99.90
59282;DHT22;45054;52.062;10.010;2022-10-15T15:30:04;17.50;99.90
59282;DHT22;45054;52.062;10.010;2022-10-15T15:32:30;17.40;99.90
59282;DHT22;45054;52.062;10.010;2022-10-15T15:34:56;17.30;99.90